createdAt,value
2018-02-22T00:00:30.953Z,48.77
2018-02-22T00:02:58.529Z,56.57
2018-02-22T00:05:26.103Z,46.63
2018-02-22T00:07:54.510Z,42.97
2018-02-22T00:10:22.104Z,48.30
2018-02-22T00:12:49.684Z,46.73
2018-02-22T00:15:18.002Z,44.50
2018-02-22T00:17:45.556Z,47.27
2018-02-22T00:20:13.884Z,49.10
2018-02-22T00:22:41.460Z,46.93
2018-02-22T00:25:09.041Z,47.27
2018-02-22T00:27:36.591Z,48.33
2018-02-22T00:30:04.157Z,48.23
2018-02-22T00:32:31.712Z,48.33
2018-02-22T00:34:59.315Z,47.07
2018-02-22T00:37:26.880Z,50.27
2018-02-22T00:39:54.513Z,48.17
2018-02-22T00:42:22.168Z,44.53
2018-02-22T00:44:49.773Z,47.53
2018-02-22T00:47:17.329Z,46.87
2018-02-22T00:49:45.671Z,48.13
2018-02-22T00:52:13.222Z,47.83
2018-02-22T00:54:40.809Z,42.83
2018-02-22T00:57:08.373Z,43.33
2018-02-22T00:59:36.372Z,48.20
2018-02-22T01:02:04.708Z,45.00
2018-02-22T01:04:32.266Z,45.53
2018-02-22T01:07:00.604Z,43.97
2018-02-22T01:09:28.168Z,47.87
2018-02-22T01:11:55.826Z,43.60
2018-02-22T01:14:23.428Z,44.87
2018-02-22T01:16:51.025Z,42.07
2018-02-22T01:19:19.367Z,43.23
2018-02-22T01:21:46.942Z,43.57
2018-02-22T01:24:14.502Z,46.67
2018-02-22T01:26:42.076Z,46.70
2018-02-22T01:29:09.629Z,45.30
2018-02-22T01:31:37.965Z,47.43
2018-02-22T01:34:05.511Z,44.07
2018-02-22T01:36:33.082Z,43.60
2018-02-22T01:39:00.633Z,45.47
2018-02-22T01:41:28.948Z,42.00
2018-02-22T01:43:56.573Z,46.03
2018-02-22T01:46:24.145Z,44.27
2018-02-22T01:48:54.101Z,44.83
2018-02-22T01:51:22.066Z,40.37
2018-02-22T01:53:49.984Z,42.07
2018-02-22T01:56:17.525Z,44.33
2018-02-22T01:58:45.872Z,41.57
2018-02-22T02:01:13.420Z,42.97
2018-02-22T02:03:41.025Z,42.10
2018-02-22T02:06:08.577Z,38.13
2018-02-22T02:08:36.165Z,44.10
2018-02-22T02:11:03.715Z,44.40
2018-02-22T02:13:31.289Z,42.83
2018-02-22T02:15:59.879Z,44.50
2018-02-22T02:18:27.870Z,38.03
2018-02-22T02:20:55.437Z,40.63
2018-02-22T02:23:23.036Z,42.10
2018-02-22T02:25:50.576Z,38.10
2018-02-22T02:28:18.129Z,41.20
2018-02-22T02:30:45.700Z,39.53
2018-02-22T02:33:13.249Z,38.13
2018-02-22T02:35:41.601Z,38.40
2018-02-22T02:38:09.157Z,39.67
2018-02-22T02:40:36.764Z,39.40
2018-02-22T02:43:04.312Z,36.93
2018-02-22T02:45:31.884Z,44.13
2018-02-22T02:47:59.431Z,35.63
2018-02-22T02:50:27.001Z,39.33
2018-02-22T02:52:54.560Z,40.97
2018-02-22T02:55:22.154Z,40.83
2018-02-22T02:57:49.712Z,39.77
2018-02-22T03:00:17.285Z,42.70
2018-02-22T03:02:44.831Z,43.87
2018-02-22T03:05:12.409Z,41.00
2018-02-22T03:07:39.998Z,41.07
2018-02-22T03:10:07.550Z,39.03
2018-02-22T03:12:35.123Z,35.37
2018-02-22T03:15:02.665Z,38.17
2018-02-22T03:17:30.268Z,37.53
2018-02-22T03:19:57.830Z,38.60
2018-02-22T03:22:26.169Z,41.07
2018-02-22T03:24:53.731Z,36.27
2018-02-22T03:27:21.303Z,36.77
2018-02-22T03:29:49.632Z,34.83
2018-02-22T03:32:17.200Z,38.80
2018-02-22T03:34:44.746Z,39.17
2018-02-22T03:37:13.094Z,39.37
2018-02-22T03:39:40.648Z,38.40
2018-02-22T03:42:08.988Z,39.80
2018-02-22T03:44:36.537Z,33.50
2018-02-22T03:47:04.115Z,38.37
2018-02-22T03:49:31.689Z,39.30
2018-02-22T03:51:59.231Z,40.17
2018-02-22T03:54:27.620Z,37.73
2018-02-22T03:56:55.156Z,39.10
2018-02-22T03:59:22.756Z,38.80
2018-02-22T04:01:51.072Z,37.67
2018-02-22T04:04:18.640Z,36.97
2018-02-22T04:06:46.185Z,35.93
2018-02-22T04:09:14.516Z,36.17
2018-02-22T04:11:42.145Z,38.33
2018-02-22T04:14:10.500Z,35.83
2018-02-22T04:16:38.044Z,37.97
2018-02-22T04:19:05.613Z,40.00
2018-02-22T04:21:33.160Z,40.50
2018-02-22T04:24:00.733Z,42.90
2018-02-22T04:26:28.281Z,36.37
2018-02-22T04:28:55.865Z,38.63
2018-02-22T04:31:24.180Z,40.33
2018-02-22T04:33:51.761Z,39.53
2018-02-22T04:36:19.332Z,35.67
2018-02-22T04:38:46.893Z,37.47
2018-02-22T04:41:14.462Z,34.37
2018-02-22T04:43:42.012Z,38.20
2018-02-22T04:46:10.351Z,34.33
2018-02-22T04:48:37.900Z,37.40
2018-02-22T04:51:05.465Z,37.90
2018-02-22T04:53:33.008Z,34.90
2018-02-22T04:56:01.342Z,35.13
2018-02-22T04:58:28.880Z,36.10
2018-02-22T05:00:57.961Z,35.47
2018-02-22T05:03:26.410Z,36.80
2018-02-22T05:05:54.037Z,33.87
2018-02-22T05:08:22.391Z,34.83
2018-02-22T05:10:49.964Z,37.50
2018-02-22T05:13:17.504Z,33.17
2018-02-22T05:15:45.080Z,33.43
2018-02-22T05:18:12.653Z,34.10
2018-02-22T05:20:40.198Z,36.73
2018-02-22T05:23:08.525Z,34.90
2018-02-22T05:25:36.068Z,29.87
2018-02-22T05:28:03.641Z,32.33
2018-02-22T05:30:31.215Z,29.03
2018-02-22T05:32:58.790Z,28.10
2018-02-22T05:35:26.903Z,31.90
2018-02-22T05:37:55.514Z,32.53
2018-02-22T05:40:23.065Z,31.77
2018-02-22T05:42:50.635Z,32.47
2018-02-22T05:45:18.192Z,33.73
2018-02-22T05:47:45.763Z,32.07
2018-02-22T05:50:13.316Z,28.43
2018-02-22T05:52:40.913Z,30.40
2018-02-22T05:55:08.465Z,30.40
2018-02-22T05:57:36.016Z,28.17
2018-02-22T06:00:04.404Z,31.43
2018-02-22T06:02:32.721Z,29.03
2018-02-22T06:05:00.308Z,29.97
2018-02-22T06:07:27.860Z,31.97
2018-02-22T06:09:55.459Z,29.70
2018-02-22T06:12:23.030Z,29.67
2018-02-22T06:14:51.372Z,33.20
2018-02-22T06:17:19.690Z,29.93
2018-02-22T06:19:47.260Z,30.77
2018-02-22T06:22:14.811Z,29.07
2018-02-22T06:24:43.139Z,31.20
2018-02-22T06:27:11.579Z,28.93
2018-02-22T06:29:40.020Z,26.70
2018-02-22T06:32:07.563Z,32.63
2018-02-22T06:34:35.140Z,30.50
2018-02-22T06:37:02.691Z,29.00
2018-02-22T06:39:31.003Z,29.83
2018-02-22T06:41:58.579Z,29.13
2018-02-22T06:44:26.133Z,32.33
2018-02-22T06:46:54.491Z,27.80
2018-02-22T06:49:22.040Z,30.00
2018-02-22T06:51:49.617Z,34.10
2018-02-22T06:54:17.168Z,28.77
2018-02-22T06:56:44.739Z,36.83
2018-02-22T06:59:12.287Z,29.80
2018-02-22T07:01:39.864Z,29.17
2018-02-22T07:04:07.432Z,29.63
2018-02-22T07:06:35.000Z,29.30
2018-02-22T07:09:02.551Z,28.43
2018-02-22T07:11:30.881Z,32.37
2018-02-22T07:13:58.482Z,27.03
2018-02-22T07:16:26.009Z,25.87
2018-02-22T07:18:53.700Z,26.40
2018-02-22T07:21:21.266Z,26.13
2018-02-22T07:23:49.614Z,24.00
2018-02-22T07:26:17.924Z,23.63
2018-02-22T07:28:45.503Z,25.07
2018-02-22T07:31:13.047Z,23.23
2018-02-22T07:33:41.402Z,21.03
2018-02-22T07:36:08.939Z,25.60
2018-02-22T07:38:36.508Z,19.30
2018-02-22T07:41:04.048Z,21.30
2018-02-22T07:43:32.361Z,21.13
2018-02-22T07:45:59.940Z,19.83
2018-02-22T07:48:27.493Z,20.23
2018-02-22T07:50:55.087Z,21.20
2018-02-22T07:53:22.688Z,21.23
2018-02-22T07:55:50.241Z,19.00
2018-02-22T07:58:18.228Z,18.13
2018-02-22T08:00:45.766Z,18.97
2018-02-22T08:03:13.367Z,17.87
2018-02-22T08:05:41.339Z,16.87
2018-02-22T08:08:08.891Z,18.97
2018-02-22T08:10:36.462Z,17.13
2018-02-22T08:13:04.010Z,19.80
2018-02-22T08:15:32.330Z,16.53
2018-02-22T08:17:59.892Z,15.53
2018-02-22T08:20:27.469Z,17.00
2018-02-22T08:22:55.066Z,16.10
2018-02-22T08:25:22.608Z,15.67
2018-02-22T08:27:50.168Z,15.17
2018-02-22T08:30:18.500Z,15.97
2018-02-22T08:32:46.052Z,14.87
2018-02-22T08:35:13.659Z,15.70
2018-02-22T08:37:41.221Z,15.07
2018-02-22T08:40:08.784Z,15.57
2018-02-22T08:42:36.383Z,14.33
2018-02-22T08:45:03.947Z,13.47
2018-02-22T08:47:31.512Z,13.33
2018-02-22T08:49:59.093Z,13.13
2018-02-22T08:52:26.792Z,12.43
2018-02-22T08:54:55.117Z,13.93
2018-02-22T08:57:22.761Z,13.93
2018-02-22T08:59:51.077Z,13.40
2018-02-22T09:02:18.616Z,13.77
2018-02-22T09:04:46.956Z,12.73
2018-02-22T09:07:14.497Z,14.57
2018-02-22T09:09:42.105Z,11.90
2018-02-22T09:12:09.653Z,13.33
2018-02-22T09:14:37.216Z,13.03
2018-02-22T09:17:04.774Z,14.07
2018-02-22T09:19:33.110Z,12.60
2018-02-22T09:22:00.653Z,12.67
2018-02-22T09:24:28.241Z,12.77
2018-02-22T09:26:55.823Z,12.77
2018-02-22T09:29:23.389Z,13.23
2018-02-22T09:31:50.981Z,13.70
2018-02-22T09:34:18.544Z,12.03
2018-02-22T09:36:46.876Z,13.77
2018-02-22T09:39:14.433Z,12.57
2018-02-22T09:41:42.016Z,13.37
2018-02-22T09:44:10.337Z,11.97
2018-02-22T09:46:37.887Z,12.63
2018-02-22T09:49:05.463Z,13.37
2018-02-22T09:51:33.012Z,12.93
2018-02-22T09:54:01.331Z,12.40
2018-02-22T09:56:28.903Z,11.57
2018-02-22T09:58:56.487Z,13.33
2018-02-22T10:01:24.099Z,11.83
2018-02-22T10:03:51.659Z,12.00
2018-02-22T10:06:19.240Z,12.33
2018-02-22T10:08:46.795Z,12.47
2018-02-22T10:11:14.346Z,13.60
2018-02-22T10:13:41.943Z,12.83
2018-02-22T10:16:10.092Z,12.80
2018-02-22T10:18:37.666Z,12.43
2018-02-22T10:21:05.221Z,12.47
2018-02-22T10:23:32.821Z,12.93
2018-02-22T10:26:00.384Z,14.27
2018-02-22T10:28:27.932Z,12.47
2018-02-22T10:30:55.570Z,12.20
2018-02-22T10:33:23.147Z,11.63
2018-02-22T10:35:51.513Z,12.30
2018-02-22T10:38:19.593Z,13.63
2018-02-22T10:40:47.142Z,15.33
2018-02-22T10:43:14.718Z,14.23
2018-02-22T10:45:42.284Z,13.37
2018-02-22T10:48:09.867Z,11.97
2018-02-22T10:50:37.415Z,12.10
2018-02-22T10:53:04.961Z,12.17
2018-02-22T10:55:33.292Z,11.87
2018-02-22T10:58:00.851Z,11.60
2018-02-22T11:00:34.198Z,11.40
2018-02-22T11:03:02.517Z,10.73
2018-02-22T11:05:30.834Z,11.03
2018-02-22T11:07:58.408Z,10.53
2018-02-22T11:10:25.963Z,10.00
2018-02-22T11:12:53.994Z,11.67
2018-02-22T11:15:21.680Z,12.93
2018-02-22T11:17:50.205Z,10.37
2018-02-22T11:20:18.541Z,10.47
2018-02-22T11:22:46.089Z,9.20
2018-02-22T11:25:13.951Z,8.93
2018-02-22T11:27:41.604Z,8.50
2018-02-22T11:30:09.917Z,9.87
2018-02-22T11:32:37.485Z,8.73
2018-02-22T11:35:05.032Z,8.40
2018-02-22T11:37:32.608Z,9.10
2018-02-22T11:40:00.936Z,10.53
2018-02-22T11:42:28.485Z,9.50
2018-02-22T11:44:56.816Z,9.00
2018-02-22T11:47:24.421Z,9.10
2018-02-22T11:49:53.075Z,9.20
2018-02-22T11:52:20.620Z,9.60
2018-02-22T11:54:48.236Z,9.70
2018-02-22T11:57:16.609Z,10.57
2018-02-22T11:59:54.991Z,10.03
2018-02-22T12:02:22.618Z,10.23
2018-02-22T12:04:51.076Z,11.40
2018-02-22T12:07:18.625Z,10.60
2018-02-22T12:09:46.963Z,10.67
2018-02-22T12:12:14.505Z,10.40
2018-02-22T12:14:42.084Z,11.70
2018-02-22T12:17:09.639Z,12.50
2018-02-22T12:19:37.963Z,12.83
2018-02-22T12:22:05.531Z,13.33
2018-02-22T12:24:33.080Z,14.00
2018-02-22T12:27:00.651Z,14.47
2018-02-22T12:29:28.930Z,13.53
2018-02-22T12:31:57.591Z,13.80
2018-02-22T12:34:25.223Z,15.00
2018-02-22T12:36:52.788Z,14.63
2018-02-22T12:39:20.357Z,14.17
2018-02-22T12:41:51.854Z,13.20
2018-02-22T12:44:20.236Z,12.70
2018-02-22T12:46:47.800Z,14.50
2018-02-22T12:49:15.344Z,13.80
2018-02-22T12:51:44.630Z,16.53
2018-02-22T12:54:12.951Z,15.00
2018-02-22T12:56:40.525Z,13.33
2018-02-22T12:59:08.067Z,13.83
2018-02-22T13:01:36.574Z,14.20
2018-02-22T13:04:04.913Z,12.33
2018-02-22T13:06:32.460Z,12.93
2018-02-22T13:09:00.025Z,14.23
2018-02-22T13:11:27.581Z,13.30
2018-02-22T13:13:56.230Z,16.13
2018-02-22T13:16:23.796Z,14.47
2018-02-22T13:18:51.346Z,15.23
2018-02-22T13:21:18.908Z,15.40
2018-02-22T13:23:46.451Z,16.03
2018-02-22T13:26:14.791Z,14.77
2018-02-22T13:28:42.340Z,13.20
2018-02-22T13:31:09.897Z,15.13
2018-02-22T13:33:49.283Z,15.37
2018-02-22T13:36:16.825Z,14.90
2018-02-22T13:38:56.183Z,13.97
2018-02-22T13:41:23.748Z,13.47
2018-02-22T13:44:16.836Z,15.03
2018-02-22T13:46:44.377Z,13.23
2018-02-22T13:49:23.804Z,14.00
2018-02-22T13:51:51.360Z,14.00
2018-02-22T13:54:18.909Z,13.80
2018-02-22T13:56:58.423Z,12.83
2018-02-22T13:59:26.798Z,13.23
2018-02-22T14:02:05.989Z,13.33
2018-02-22T14:04:33.568Z,11.87
2018-02-22T14:07:01.108Z,12.17
2018-02-22T14:09:29.419Z,12.10
2018-02-22T14:11:56.963Z,12.30
2018-02-22T14:14:24.519Z,12.60
2018-02-22T14:16:52.892Z,13.17
2018-02-22T14:19:20.443Z,12.40
2018-02-22T14:21:47.983Z,12.20
2018-02-22T14:24:15.556Z,13.17
2018-02-22T14:26:43.104Z,12.73
2018-02-22T14:29:10.652Z,13.10
2018-02-22T14:31:38.243Z,12.80
2018-02-22T14:34:06.560Z,11.47
2018-02-22T14:36:34.108Z,13.33
2018-02-22T14:39:02.462Z,12.73
2018-02-22T14:41:30.021Z,11.47
2018-02-22T14:43:57.573Z,12.40
2018-02-22T14:46:25.160Z,12.07
2018-02-22T14:48:52.757Z,11.77
2018-02-22T14:51:20.316Z,11.80
2018-02-22T14:53:47.898Z,11.67
2018-02-22T14:56:15.439Z,10.77
2018-02-22T14:58:42.979Z,10.17
2018-02-22T15:01:10.565Z,10.97
2018-02-22T15:03:38.104Z,11.30
2018-02-22T15:06:06.409Z,8.83
2018-02-22T15:08:34.242Z,9.80
2018-02-22T15:11:01.793Z,9.17
2018-02-22T15:13:29.336Z,9.27
2018-02-22T15:15:56.912Z,9.17
2018-02-22T15:18:24.471Z,11.13
2018-02-22T15:20:52.040Z,9.67
2018-02-22T15:23:20.355Z,9.43
2018-02-22T15:25:47.886Z,9.17
2018-02-22T15:28:16.190Z,9.47
2018-02-22T15:30:43.750Z,9.03
2018-02-22T15:33:12.062Z,11.00
2018-02-22T15:35:39.603Z,10.97
2018-02-22T15:38:07.188Z,9.47
2018-02-22T15:40:34.723Z,11.63
2018-02-22T15:43:02.258Z,9.90
2018-02-22T15:45:29.820Z,10.60
2018-02-22T15:47:57.369Z,10.83
2018-02-22T15:50:24.920Z,9.70
2018-02-22T15:52:53.257Z,12.80
2018-02-22T15:55:20.792Z,8.80
2018-02-22T15:57:49.094Z,9.10
2018-02-22T16:00:16.679Z,10.23
2018-02-22T16:02:44.215Z,10.63
2018-02-22T16:05:12.520Z,10.73
2018-02-22T16:07:40.089Z,10.10
2018-02-22T16:10:07.628Z,13.00
2018-02-22T16:12:35.177Z,9.97
2018-02-22T16:15:03.045Z,10.57
2018-02-22T16:17:30.575Z,11.17
2018-02-22T16:19:58.875Z,11.33
2018-02-22T16:22:27.201Z,11.20
2018-02-22T16:24:54.749Z,11.47
2018-02-22T16:27:22.317Z,12.73
2018-02-22T16:29:49.906Z,17.23
2018-02-22T16:32:17.472Z,16.83
2018-02-22T16:34:45.008Z,16.10
2018-02-22T16:37:13.333Z,14.93
2018-02-22T16:39:40.912Z,14.30
2018-02-22T16:42:08.461Z,17.63
2018-02-22T16:44:36.031Z,14.80
2018-02-22T16:47:03.578Z,17.40
2018-02-22T16:49:31.892Z,17.13
2018-02-22T16:51:59.471Z,17.60
2018-02-22T16:54:27.074Z,17.17
2018-02-22T16:56:54.605Z,16.60
2018-02-22T16:59:22.183Z,17.10
2018-02-22T17:01:49.720Z,20.30
2018-02-22T17:04:18.028Z,18.27
2018-02-22T17:06:45.596Z,19.23
2018-02-22T17:09:13.131Z,17.77
2018-02-22T17:11:40.682Z,18.87
2018-02-22T17:14:09.075Z,19.00
2018-02-22T17:16:36.612Z,19.83
2018-02-22T17:19:04.154Z,20.10
2018-02-22T17:21:32.493Z,18.80
2018-02-22T17:24:00.036Z,19.20
2018-02-22T17:26:33.204Z,18.70
2018-02-22T17:29:06.518Z,19.30
2018-02-22T17:31:40.445Z,18.70
2018-02-22T17:34:08.743Z,20.13
2018-02-22T17:36:49.996Z,20.23
2018-02-22T17:42:18.788Z,21.80
2018-02-22T17:44:46.328Z,22.80
2018-02-22T17:47:14.636Z,22.40
2018-02-22T17:49:42.963Z,23.00
2018-02-22T17:52:10.506Z,30.47
2018-02-22T17:54:38.049Z,24.43
2018-02-22T17:57:06.383Z,21.83
2018-02-22T17:59:33.924Z,24.90
2018-02-22T18:02:02.245Z,23.30
2018-02-22T18:04:29.809Z,23.57
2018-02-22T18:06:57.356Z,23.87
2018-02-22T18:09:25.661Z,26.43
2018-02-22T18:11:53.248Z,27.63
2018-02-22T18:14:20.801Z,27.00
2018-02-22T18:16:48.352Z,27.10
2018-02-22T18:19:16.691Z,28.10
2018-02-22T18:21:44.228Z,29.17
2018-02-22T18:24:11.785Z,28.83
2018-02-22T18:26:40.313Z,28.87
2018-02-22T18:29:07.853Z,25.47
2018-02-22T18:31:36.161Z,26.97
2018-02-22T18:34:03.748Z,27.57
2018-02-22T18:36:31.296Z,24.33
2018-02-22T18:39:04.968Z,29.37
2018-02-22T18:41:38.240Z,28.77
2018-02-22T18:44:11.582Z,25.37
2018-02-22T18:46:39.133Z,27.90
2018-02-22T18:49:06.672Z,28.10
2018-02-22T18:51:34.264Z,28.57
2018-02-22T18:54:01.818Z,28.37
2018-02-22T18:56:29.356Z,25.53
2018-02-22T18:58:57.724Z,29.23
2018-02-22T19:01:25.325Z,28.87
2018-02-22T19:03:53.684Z,28.17
2018-02-22T19:06:21.286Z,30.27
2018-02-22T19:08:49.608Z,29.73
2018-02-22T19:11:17.148Z,26.83
2018-02-22T19:13:45.484Z,30.03
2018-02-22T19:16:13.042Z,29.60
2018-02-22T19:18:40.588Z,25.37
2018-02-22T19:21:08.172Z,28.37
2018-02-22T19:23:35.725Z,28.30
2018-02-22T19:26:03.272Z,26.87
2018-02-22T19:28:31.124Z,27.57
2018-02-22T19:31:00.876Z,25.80
2018-02-22T19:33:28.428Z,28.10
2018-02-22T19:35:56.011Z,25.43
2018-02-22T19:38:26.403Z,27.13
2018-02-22T19:40:53.971Z,26.17
2018-02-22T19:43:21.617Z,27.43
2018-02-22T19:45:49.776Z,28.63
2018-02-22T19:48:17.331Z,26.53
2018-02-22T19:50:44.895Z,25.20
2018-02-22T19:53:12.442Z,26.10
2018-02-22T19:55:39.989Z,26.50
2018-02-22T19:58:08.327Z,24.90
2018-02-22T20:00:35.873Z,27.37
2018-02-22T20:03:03.424Z,25.90
2018-02-22T20:05:31.253Z,24.10
2018-02-22T20:07:58.798Z,29.77
2018-02-22T20:10:26.360Z,23.80
2018-02-22T20:12:53.951Z,27.27
2018-02-22T20:15:21.528Z,24.27
2018-02-22T20:17:49.157Z,24.90
2018-02-22T20:20:16.688Z,24.37
2018-02-22T20:22:44.237Z,25.27
2018-02-22T20:25:11.808Z,22.63
2018-02-22T20:27:39.374Z,26.10
2018-02-22T20:30:06.924Z,22.90
2018-02-22T20:32:34.506Z,25.03
2018-02-22T20:35:02.064Z,20.50
2018-02-22T20:37:29.607Z,21.83
2018-02-22T20:39:57.980Z,22.57
2018-02-22T20:42:27.037Z,21.90
2018-02-22T20:44:54.607Z,23.50
2018-02-22T20:47:22.187Z,22.83
2018-02-22T20:49:49.732Z,23.07
2018-02-22T20:52:21.770Z,22.03
2018-02-22T20:54:49.996Z,21.80
2018-02-22T20:57:18.320Z,19.23
2018-02-22T20:59:45.898Z,22.03
2018-02-22T21:02:13.466Z,21.10
2018-02-22T21:04:41.014Z,20.17
2018-02-22T21:07:08.635Z,20.13
2018-02-22T21:09:36.181Z,18.97
2018-02-22T21:12:03.733Z,19.17
2018-02-22T21:14:31.307Z,17.80
2018-02-22T21:16:59.286Z,20.17
2018-02-22T21:19:26.867Z,19.50
2018-02-22T21:21:54.452Z,18.10
2018-02-22T21:24:22.032Z,17.27
2018-02-22T21:26:49.596Z,16.63
2018-02-22T21:29:17.173Z,16.20
2018-02-22T21:31:44.745Z,17.37
2018-02-22T21:34:12.287Z,16.23
2018-02-22T21:36:40.607Z,16.63
2018-02-22T21:39:08.160Z,15.50
2018-02-22T21:41:35.714Z,15.70
2018-02-22T21:44:03.303Z,14.67
2018-02-22T21:46:30.847Z,16.20
2018-02-22T21:48:58.414Z,15.03
2018-02-22T21:51:25.999Z,17.80
2018-02-22T21:53:53.548Z,15.80
2018-02-22T21:56:21.894Z,15.87
2018-02-22T21:58:49.509Z,15.00
2018-02-22T22:01:17.823Z,16.50
2018-02-22T22:03:45.355Z,14.57
2018-02-22T22:06:13.496Z,16.37
2018-02-22T22:08:41.053Z,15.73
2018-02-22T22:11:08.603Z,14.13
2018-02-22T22:13:36.931Z,16.40
2018-02-22T22:16:04.479Z,14.83
2018-02-22T22:18:32.445Z,12.83
2018-02-22T22:21:00.782Z,17.17
2018-02-22T22:23:28.326Z,16.43
2018-02-22T22:25:55.908Z,13.17
2018-02-22T22:28:23.827Z,16.50
2018-02-22T22:30:51.375Z,15.07
2018-02-22T22:33:18.948Z,15.27
2018-02-22T22:35:46.520Z,15.40
2018-02-22T22:38:14.064Z,14.47
2018-02-22T22:40:41.627Z,14.63
2018-02-22T22:43:09.204Z,15.47
2018-02-22T22:45:36.747Z,14.30
2018-02-22T22:48:05.058Z,13.70
2018-02-22T22:50:32.681Z,15.30
2018-02-22T22:53:00.205Z,13.87
2018-02-22T22:55:27.756Z,13.20
2018-02-22T22:57:56.102Z,14.07
2018-02-22T23:00:23.666Z,13.87
2018-02-22T23:02:51.225Z,15.07
2018-02-22T23:05:18.802Z,15.03
2018-02-22T23:07:46.351Z,16.10
2018-02-22T23:10:13.892Z,15.20
2018-02-22T23:12:42.235Z,13.27
2018-02-22T23:15:09.777Z,14.83
2018-02-22T23:17:37.326Z,15.57
2018-02-22T23:20:05.673Z,13.63
2018-02-22T23:22:33.260Z,15.23
2018-02-22T23:25:00.804Z,15.10
2018-02-22T23:27:28.376Z,13.03
2018-02-22T23:29:55.939Z,13.27
2018-02-22T23:32:23.508Z,12.73
2018-02-22T23:34:51.085Z,12.70
2018-02-22T23:37:18.628Z,16.60
2018-02-22T23:39:46.170Z,13.53
2018-02-22T23:42:33.285Z,14.73
2018-02-22T23:45:00.832Z,14.27
2018-02-22T23:47:28.387Z,16.27
2018-02-22T23:49:55.961Z,13.13
2018-02-22T23:52:23.511Z,14.00
2018-02-22T23:54:51.076Z,18.40
2018-02-22T23:57:19.404Z,14.70
2018-02-22T23:59:46.956Z,14.57
